createdAt,value
2023-02-03T00:00:28.766Z,93518.22
2023-02-03T00:03:11.769Z,93511.41
2023-02-03T00:05:55.503Z,93512.22
2023-02-03T00:08:39.952Z,93505.28
2023-02-03T00:11:23.046Z,93505.28
2023-02-03T00:14:08.043Z,93501.81
2023-02-03T00:16:51.221Z,93492.56
2023-02-03T00:19:34.209Z,93490.13
2023-02-03T00:22:17.107Z,93489.94
2023-02-03T00:25:01.396Z,93489.94
2023-02-03T00:27:44.726Z,93499.19
2023-02-03T00:30:28.090Z,93494.78
2023-02-03T00:33:11.168Z,93497.94
2023-02-03T00:35:54.108Z,93497.03
2023-02-03T00:38:37.028Z,93495.50
2023-02-03T00:41:22.518Z,93488.06
2023-02-03T00:44:05.700Z,93494.78
2023-02-03T00:46:48.652Z,93497.22
2023-02-03T00:49:31.651Z,93496.22
2023-02-03T00:52:14.567Z,93492.78
2023-02-03T00:54:57.599Z,93491.88
2023-02-03T00:57:41.907Z,93483.31
2023-02-03T01:00:26.829Z,93487.38
2023-02-03T01:03:11.576Z,93484.66
2023-02-03T01:05:54.466Z,93487.91
2023-02-03T01:08:37.376Z,93485.38
2023-02-03T01:11:23.451Z,93480.88
2023-02-03T01:14:07.786Z,93485.78
2023-02-03T01:16:52.413Z,93480.69
2023-02-03T01:19:35.430Z,93476.41
2023-02-03T01:22:18.399Z,93470.19
2023-02-03T01:25:01.269Z,93484.66
2023-02-03T01:27:44.278Z,93477.72
2023-02-03T01:30:29.064Z,93480.19
2023-02-03T01:33:12.165Z,93477.63
2023-02-03T01:35:55.137Z,93476.63
2023-02-03T01:38:38.977Z,93469.81
2023-02-03T01:41:23.978Z,93469.69
2023-02-03T01:44:40.118Z,93468.88
2023-02-03T01:47:32.489Z,93463.69
2023-02-03T01:50:20.301Z,93454.28
2023-02-03T01:53:07.865Z,93461.13
2023-02-03T01:55:51.714Z,93453.50
2023-02-03T01:58:39.117Z,93455.13
2023-02-03T02:01:22.086Z,93449.19
2023-02-03T02:04:07.279Z,93444.94
2023-02-03T02:06:51.790Z,93444.84
2023-02-03T02:09:35.339Z,93444.84
2023-02-03T02:12:18.425Z,93444.84
2023-02-03T02:15:01.554Z,93449.91
2023-02-03T02:17:55.253Z,93438.09
2023-02-03T02:21:17.491Z,93436.47
2023-02-03T02:24:32.379Z,93436.38
2023-02-03T02:27:27.609Z,93428.75
2023-02-03T02:30:40.294Z,93425.16
2023-02-03T02:33:37.619Z,93416.63
2023-02-03T02:36:34.294Z,93414.88
2023-02-03T02:39:24.198Z,93415.69
2023-02-03T02:42:12.353Z,93414.06
2023-02-03T02:45:00.411Z,93413.34
2023-02-03T02:47:45.184Z,93407.22
2023-02-03T02:50:35.540Z,93401.34
2023-02-03T02:53:22.450Z,93401.22
2023-02-03T02:56:11.680Z,93407.22
2023-02-03T02:58:57.033Z,93402.25
2023-02-03T03:01:41.258Z,93414.78
2023-02-03T03:04:28.463Z,93414.66
2023-02-03T03:07:17.733Z,93407.03
2023-02-03T03:10:03.934Z,93406.81
2023-02-03T03:12:51.642Z,93409.38
2023-02-03T03:15:37.114Z,93412.63
2023-02-03T03:18:25.582Z,93411.53
2023-02-03T03:21:11.137Z,93407.22
2023-02-03T03:24:00.448Z,93406.31
2023-02-03T03:26:49.006Z,93406.09
2023-02-03T03:29:37.149Z,93406.81
2023-02-03T03:32:20.047Z,93409.38
2023-02-03T03:35:04.017Z,93408.44
2023-02-03T03:37:52.255Z,93401.72
2023-02-03T03:40:41.531Z,93401.59
2023-02-03T03:43:29.206Z,93403.25
2023-02-03T03:46:16.034Z,93398.84
2023-02-03T03:49:03.218Z,93410.88
2023-02-03T03:51:50.417Z,93400.59
2023-02-03T03:54:34.888Z,93415.78
2023-02-03T03:57:24.759Z,93413.13
2023-02-03T04:00:10.723Z,93401.22
2023-02-03T04:03:01.162Z,93405.38
2023-02-03T04:05:44.434Z,93410.38
2023-02-03T04:08:27.313Z,93409.38
2023-02-03T04:11:10.204Z,93416.88
2023-02-03T04:13:54.355Z,93417.91
2023-02-03T04:16:37.124Z,93416.06
2023-02-03T04:19:20.137Z,93413.63
2023-02-03T04:22:02.909Z,93417.81
2023-02-03T04:24:45.689Z,93410.88
2023-02-03T04:27:28.614Z,93418.72
2023-02-03T04:30:14.507Z,93416.19
2023-02-03T04:32:57.328Z,93411.09
2023-02-03T04:35:40.155Z,93415.13
2023-02-03T04:38:23.008Z,93423.50
2023-02-03T04:41:06.049Z,93414.94
2023-02-03T04:43:49.328Z,93414.13
2023-02-03T04:46:33.848Z,93405.78
2023-02-03T04:49:17.700Z,93408.66
2023-02-03T04:52:00.550Z,93416.78
2023-02-03T04:54:43.391Z,93412.59
2023-02-03T04:57:26.319Z,93419.44
2023-02-03T05:00:10.721Z,93414.16
2023-02-03T05:02:54.974Z,93401.41
2023-02-03T05:05:37.866Z,93397.94
2023-02-03T05:08:20.655Z,93387.03
2023-02-03T05:11:04.717Z,93376.50
2023-02-03T05:13:48.647Z,93368.66
2023-02-03T05:16:31.567Z,93369.88
2023-02-03T05:19:15.875Z,93371.78
2023-02-03T05:21:58.638Z,93361.22
2023-02-03T05:24:41.455Z,93336.84
2023-02-03T05:27:24.336Z,93339.47
2023-02-03T05:30:08.266Z,93329.28
2023-02-03T05:32:51.171Z,93336.75
2023-02-03T05:35:35.372Z,93341.94
2023-02-03T05:38:18.346Z,93337.91
2023-02-03T05:41:18.821Z,93338.59
2023-02-03T05:44:01.700Z,93350.94
2023-02-03T05:46:44.512Z,93350.31
2023-02-03T05:49:27.587Z,93359.69
2023-02-03T05:52:11.943Z,93342.69
2023-02-03T05:54:54.951Z,93340.19
2023-02-03T05:57:37.744Z,93327.31
2023-02-03T06:00:22.394Z,93340.75
2023-02-03T06:03:05.381Z,93358.66
2023-02-03T06:05:48.208Z,93358.03
2023-02-03T06:08:32.514Z,93347.63
2023-02-03T06:11:15.392Z,93332.94
2023-02-03T06:13:59.507Z,93336.66
2023-02-03T06:16:42.392Z,93324.69
2023-02-03T06:19:25.281Z,93312.97
2023-02-03T06:22:08.084Z,93319.28
2023-02-03T06:24:52.215Z,93316.59
2023-02-03T06:27:35.114Z,93314.66
2023-02-03T06:30:20.321Z,93320.59
2023-02-03T06:33:03.161Z,93310.31
2023-02-03T06:35:46.108Z,93316.66
2023-02-03T06:38:28.912Z,93310.72
2023-02-03T06:41:13.093Z,93304.41
2023-02-03T06:43:55.881Z,93309.09
2023-02-03T06:46:38.856Z,93296.00
2023-02-03T06:49:21.631Z,93284.56
2023-02-03T06:52:04.652Z,93272.13
2023-02-03T06:54:47.446Z,93263.56
2023-02-03T06:57:31.631Z,93266.34
2023-02-03T07:00:18.570Z,93280.56
2023-02-03T07:03:02.370Z,93250.28
2023-02-03T07:05:45.303Z,93268.41
2023-02-03T07:08:28.119Z,93266.91
2023-02-03T07:11:11.142Z,93261.16
2023-02-03T07:13:55.361Z,93254.81
2023-02-03T07:16:38.159Z,93265.31
2023-02-03T07:19:21.007Z,93265.19
2023-02-03T07:22:03.810Z,93245.66
2023-02-03T07:24:46.616Z,93258.34
2023-02-03T07:27:29.769Z,93262.63
2023-02-03T07:30:15.151Z,93264.56
2023-02-03T07:32:57.947Z,93263.00
2023-02-03T07:35:40.706Z,93279.16
2023-02-03T07:38:24.736Z,93297.16
2023-02-03T07:41:08.383Z,93296.91
2023-02-03T07:43:51.226Z,93302.47
2023-02-03T07:46:35.469Z,93297.09
2023-02-03T07:49:18.319Z,93303.34
2023-02-03T07:52:01.125Z,93303.09
2023-02-03T07:54:44.036Z,93305.25
2023-02-03T07:57:27.471Z,93292.56
2023-02-03T08:00:12.057Z,93298.00
2023-02-03T08:02:58.901Z,93295.22
2023-02-03T08:05:41.761Z,93287.16
2023-02-03T08:08:24.580Z,93289.13
2023-02-03T08:11:07.423Z,93299.44
2023-02-03T08:13:50.275Z,93284.25
2023-02-03T08:16:33.190Z,93297.31
2023-02-03T08:19:17.466Z,93274.66
2023-02-03T08:22:00.302Z,93274.75
2023-02-03T08:24:45.704Z,93282.03
2023-02-03T08:27:28.534Z,93300.16
2023-02-03T08:30:14.361Z,93303.31
2023-02-03T08:32:57.192Z,93313.63
2023-02-03T08:35:41.436Z,93309.25
2023-02-03T08:38:24.243Z,93317.47
2023-02-03T08:41:10.607Z,93318.75
2023-02-03T08:43:54.138Z,93308.94
2023-02-03T08:46:37.565Z,93320.44
2023-02-03T08:49:21.157Z,93313.53
2023-02-03T08:52:06.156Z,93317.38
2023-02-03T08:54:49.613Z,93315.28
2023-02-03T08:57:34.047Z,93324.72
2023-02-03T09:00:17.760Z,93321.69
2023-02-03T09:03:00.596Z,93314.28
2023-02-03T09:05:43.356Z,93306.00
2023-02-03T09:08:27.619Z,93309.09
2023-02-03T09:11:11.228Z,93292.88
2023-02-03T09:13:54.050Z,93293.63
2023-02-03T09:16:36.970Z,93288.25
2023-02-03T09:19:20.012Z,93294.75
2023-02-03T09:22:03.114Z,93294.34
2023-02-03T09:24:48.659Z,93293.97
2023-02-03T09:27:31.466Z,93300.72
2023-02-03T09:30:15.077Z,93295.47
2023-02-03T09:32:58.943Z,93293.69
2023-02-03T09:35:42.020Z,93289.63
2023-02-03T09:38:25.542Z,93291.69
2023-02-03T09:41:22.956Z,93292.88
2023-02-03T09:44:13.862Z,93304.53
2023-02-03T09:47:00.996Z,93302.69
2023-02-03T09:49:47.196Z,93296.53
2023-02-03T09:52:33.611Z,93313.00
2023-02-03T09:55:27.693Z,93314.25
2023-02-03T09:58:13.904Z,93315.28
2023-02-03T10:01:00.132Z,93326.22
2023-02-03T10:03:49.037Z,93316.38
2023-02-03T10:06:37.186Z,93322.13
2023-02-03T10:09:29.463Z,93305.78
2023-02-03T10:12:46.652Z,93309.16
2023-02-03T10:15:45.162Z,93311.63
2023-02-03T10:18:33.195Z,93314.41
2023-02-03T10:21:25.067Z,93312.69
2023-02-03T10:24:13.815Z,93307.63
2023-02-03T10:26:56.835Z,93300.78
2023-02-03T10:29:43.940Z,93295.34
2023-02-03T10:32:28.902Z,93282.88
2023-02-03T10:35:13.678Z,93287.19
2023-02-03T10:37:59.809Z,93286.84
2023-02-03T10:40:42.657Z,93288.31
2023-02-03T10:43:43.200Z,93282.84
2023-02-03T10:46:30.455Z,93271.47
2023-02-03T10:49:16.451Z,93265.91
2023-02-03T10:52:04.830Z,93276.44
2023-02-03T10:54:47.973Z,93269.00
2023-02-03T10:57:31.361Z,93274.91
2023-02-03T11:00:24.200Z,93289.78
2023-02-03T11:03:09.607Z,93257.03
2023-02-03T11:06:08.622Z,93245.34
2023-02-03T11:08:52.816Z,93253.78
2023-02-03T11:11:37.339Z,93257.97
2023-02-03T11:14:19.995Z,93230.78
2023-02-03T11:17:08.383Z,93232.69
2023-02-03T11:19:53.751Z,93231.69
2023-02-03T11:22:40.101Z,93210.09
2023-02-03T11:25:29.823Z,93220.59
2023-02-03T11:28:14.127Z,93202.56
2023-02-03T11:30:59.038Z,93186.72
2023-02-03T11:33:41.897Z,93196.00
2023-02-03T11:36:28.477Z,93190.84
2023-02-03T11:39:20.524Z,93182.41
2023-02-03T11:42:03.680Z,93184.41
2023-02-03T11:44:46.591Z,93199.47
2023-02-03T11:47:29.416Z,93187.63
2023-02-03T11:50:25.984Z,93192.53
2023-02-03T11:53:24.229Z,93179.97
2023-02-03T11:56:21.249Z,93187.41
2023-02-03T11:59:39.749Z,93174.31
2023-02-03T12:02:54.997Z,93173.25
2023-02-03T12:05:57.776Z,93189.63
2023-02-03T12:08:58.391Z,93185.00
2023-02-03T12:12:06.810Z,93180.72
2023-02-03T12:15:00.674Z,93178.41
2023-02-03T12:17:56.116Z,93157.41
2023-02-03T12:20:49.159Z,93150.69
2023-02-03T12:23:42.271Z,93132.59
2023-02-03T12:26:27.063Z,93137.78
2023-02-03T12:29:14.447Z,93145.84
2023-02-03T12:32:06.653Z,93132.47
2023-02-03T12:34:54.926Z,93135.03
2023-02-03T12:37:47.302Z,93142.22
2023-02-03T12:40:37.071Z,93138.41
2023-02-03T12:43:26.609Z,93119.50
2023-02-03T12:46:15.840Z,93109.53
2023-02-03T12:49:04.302Z,93118.09
2023-02-03T12:51:51.531Z,93102.47
2023-02-03T12:54:45.472Z,93086.34
2023-02-03T12:57:31.769Z,93067.00
2023-02-03T13:00:28.968Z,93065.72
2023-02-03T13:03:26.010Z,93065.00
2023-02-03T13:06:16.096Z,93053.78
2023-02-03T13:09:03.873Z,93058.75
2023-02-03T13:11:55.274Z,93055.75
2023-02-03T13:14:43.928Z,93037.44
2023-02-03T13:17:29.792Z,93031.84
2023-02-03T13:20:20.467Z,93010.16
2023-02-03T13:23:07.096Z,92997.22
2023-02-03T13:26:06.554Z,92985.25
2023-02-03T13:29:19.137Z,92958.38
2023-02-03T13:32:16.834Z,92939.25
2023-02-03T13:35:32.214Z,92912.38
2023-02-03T13:38:29.301Z,92897.63
2023-02-03T13:41:20.979Z,92915.28
2023-02-03T13:44:05.225Z,92921.91
2023-02-03T13:46:50.786Z,92929.41
2023-02-03T13:49:36.133Z,92920.91
2023-02-03T13:52:37.504Z,92931.16
2023-02-03T13:55:31.892Z,92920.44
2023-02-03T13:58:22.875Z,92931.00
2023-02-03T14:01:28.511Z,92933.03
2023-02-03T14:04:52.931Z,92950.94
2023-02-03T14:07:40.686Z,92963.34
2023-02-03T14:10:24.898Z,92963.59
2023-02-03T14:13:21.329Z,92972.25
2023-02-03T14:16:24.558Z,92961.44
2023-02-03T14:19:10.616Z,92963.38
2023-02-03T14:21:56.159Z,92953.69
2023-02-03T14:24:44.328Z,92966.88
2023-02-03T14:27:30.092Z,92958.47
2023-02-03T14:30:16.726Z,92947.94
2023-02-03T14:33:01.647Z,92950.22
2023-02-03T14:35:44.614Z,92953.59
2023-02-03T14:38:33.498Z,92978.97
2023-02-03T14:41:22.693Z,92965.63
2023-02-03T14:44:11.647Z,92963.66
2023-02-03T14:47:08.758Z,92968.97
2023-02-03T14:50:05.336Z,92948.91
2023-02-03T14:53:09.141Z,92952.16
2023-02-03T14:56:03.202Z,92946.72
2023-02-03T14:58:51.450Z,92949.84
2023-02-03T15:02:09.647Z,92933.53
2023-02-03T15:05:13.281Z,92933.59
2023-02-03T15:07:56.198Z,92927.56
2023-02-03T15:10:43.465Z,92917.16
2023-02-03T15:13:27.322Z,92932.31
2023-02-03T15:16:19.560Z,92913.16
2023-02-03T15:19:08.909Z,92924.41
2023-02-03T15:21:51.846Z,92939.50
2023-02-03T15:24:37.066Z,92942.28
2023-02-03T15:27:24.515Z,92923.69
2023-02-03T15:30:18.092Z,92920.41
2023-02-03T15:33:08.112Z,92927.25
2023-02-03T15:35:54.750Z,92914.38
2023-02-03T15:38:41.354Z,92875.84
2023-02-03T15:41:25.936Z,92871.69
2023-02-03T15:44:13.469Z,92865.34
2023-02-03T15:46:58.050Z,92861.00
2023-02-03T15:49:43.396Z,92858.63
2023-02-03T15:52:28.058Z,92854.00
2023-02-03T15:55:20.646Z,92864.22
2023-02-03T15:58:04.738Z,92882.66
2023-02-03T16:00:51.526Z,92859.16
2023-02-03T16:03:41.270Z,92871.81
2023-02-03T16:06:29.743Z,92871.97
2023-02-03T16:09:29.133Z,92900.00
2023-02-03T16:12:19.959Z,92914.22
2023-02-03T16:15:03.290Z,92918.41
2023-02-03T16:17:46.147Z,92906.19
2023-02-03T16:20:29.480Z,92879.25
2023-02-03T16:23:22.762Z,92884.38
2023-02-03T16:26:08.033Z,92868.97
2023-02-03T16:29:15.995Z,92905.88
2023-02-03T16:32:16.769Z,92909.44
2023-02-03T16:35:16.914Z,92911.41
2023-02-03T16:38:23.843Z,92911.75
2023-02-03T16:41:35.355Z,92906.88
2023-02-03T16:44:35.954Z,92924.41
2023-02-03T16:47:42.987Z,92912.69
2023-02-03T16:50:43.594Z,92903.06
2023-02-03T16:53:28.216Z,92901.94
2023-02-03T16:56:13.553Z,92888.94
2023-02-03T16:58:56.381Z,92890.78
2023-02-03T17:01:39.225Z,92896.59
2023-02-03T17:04:22.141Z,92899.84
2023-02-03T17:07:05.205Z,92897.84
2023-02-03T17:09:48.058Z,92897.03
2023-02-03T17:12:33.575Z,92891.31
2023-02-03T17:15:16.393Z,92912.59
2023-02-03T17:17:59.612Z,92907.31
2023-02-03T17:20:43.211Z,92899.75
2023-02-03T17:23:26.022Z,92896.59
2023-02-03T17:26:09.269Z,92900.19
2023-02-03T17:28:53.477Z,92915.22
2023-02-03T17:31:36.350Z,92911.00
2023-02-03T17:34:19.401Z,92905.09
2023-02-03T17:37:02.231Z,92898.69
2023-02-03T17:54:48.196Z,92899.66
2023-02-03T17:57:32.356Z,92918.88
2023-02-03T18:00:16.808Z,92910.13
2023-02-03T18:03:00.959Z,92914.41
2023-02-03T18:05:51.112Z,92910.81
2023-02-03T18:08:33.974Z,92920.50
2023-02-03T18:11:18.008Z,92921.94
2023-02-03T18:14:01.610Z,92930.28
2023-02-03T18:16:44.979Z,92934.34
2023-02-03T18:19:29.179Z,92916.91
2023-02-03T18:22:11.954Z,92926.78
2023-02-03T18:24:55.596Z,92930.28
2023-02-03T18:27:38.462Z,92920.28
2023-02-03T18:30:21.838Z,92922.38
2023-02-03T18:33:04.762Z,92938.00
2023-02-03T18:35:48.941Z,92917.34
2023-02-03T18:38:33.816Z,92925.44
2023-02-03T18:41:18.888Z,92943.44
2023-02-03T18:44:01.691Z,92937.59
2023-02-03T18:46:44.530Z,92928.63
2023-02-03T18:49:27.493Z,92950.88
2023-02-03T18:52:11.956Z,92955.13
2023-02-03T18:54:54.627Z,92945.88
2023-02-03T18:57:37.581Z,92953.78
2023-02-03T19:00:20.842Z,92959.13
2023-02-03T19:03:03.804Z,92950.53
2023-02-03T19:05:46.617Z,92960.53
2023-02-03T19:08:30.797Z,92966.19
2023-02-03T19:11:14.541Z,92962.16
2023-02-03T19:13:57.368Z,92966.09
2023-02-03T19:16:40.237Z,92966.25
2023-02-03T19:19:23.062Z,92983.69
2023-02-03T19:22:05.912Z,92979.53
2023-02-03T19:24:50.058Z,92977.25
2023-02-03T19:27:32.886Z,92984.56
2023-02-03T19:30:15.754Z,93009.84
2023-02-03T19:32:58.660Z,92994.28
2023-02-03T19:35:42.618Z,93000.88
2023-02-03T19:38:25.667Z,93007.97
2023-02-03T19:41:11.799Z,92998.69
2023-02-03T19:43:54.675Z,93012.75
2023-02-03T19:46:38.498Z,93020.97
2023-02-03T19:49:21.489Z,93002.25
2023-02-03T19:52:05.341Z,93014.56
2023-02-03T19:54:48.120Z,93022.09
2023-02-03T19:57:32.531Z,93006.34
2023-02-03T20:00:16.027Z,93022.25
2023-02-03T20:02:59.729Z,93028.59
2023-02-03T20:05:42.500Z,93030.81
2023-02-03T20:08:25.329Z,93032.41
2023-02-03T20:11:08.133Z,93043.91
2023-02-03T20:13:52.901Z,93037.88
2023-02-03T20:16:35.709Z,93028.03
2023-02-03T20:19:19.576Z,93028.81
2023-02-03T20:22:02.374Z,93047.25
2023-02-03T20:24:45.293Z,93040.31
2023-02-03T20:27:28.116Z,93036.75
2023-02-03T20:30:13.956Z,93037.66
2023-02-03T20:32:56.774Z,93033.50
2023-02-03T20:35:39.666Z,93028.50
2023-02-03T20:38:22.485Z,93012.03
2023-02-03T20:41:09.775Z,93011.34
2023-02-03T20:43:52.575Z,93011.00
2023-02-03T20:46:36.772Z,93013.88
2023-02-03T20:49:19.870Z,93021.66
2023-02-03T20:52:02.645Z,93040.56
2023-02-03T20:54:46.192Z,93031.16
2023-02-03T20:57:28.991Z,93030.47
2023-02-03T21:00:16.581Z,93026.63
2023-02-03T21:03:18.749Z,93024.09
2023-02-03T21:06:01.558Z,93031.06
2023-02-03T21:08:45.446Z,93028.38
2023-02-03T21:11:30.537Z,93022.94
2023-02-03T21:14:20.678Z,93027.47
2023-02-03T21:17:03.495Z,93014.13
2023-02-03T21:19:48.014Z,93010.66
2023-02-03T21:22:33.233Z,92998.38
2023-02-03T21:25:27.312Z,93017.84
2023-02-03T21:28:24.569Z,93009.38
2023-02-03T21:31:16.181Z,93001.59
2023-02-03T21:34:00.548Z,93003.47
2023-02-03T21:36:44.672Z,92998.97
2023-02-03T21:39:30.121Z,93005.69
2023-02-03T21:42:46.299Z,93031.97
2023-02-03T21:45:42.051Z,93027.22
2023-02-03T21:48:32.075Z,93023.38
2023-02-03T21:51:17.751Z,93022.47
2023-02-03T21:54:03.393Z,93014.72
2023-02-03T21:56:46.391Z,93030.84
2023-02-03T21:59:38.521Z,93033.13
2023-02-03T22:02:45.241Z,93032.34
2023-02-03T22:05:28.068Z,93048.44
2023-02-03T22:08:18.232Z,93041.84
2023-02-03T22:11:02.377Z,93055.50
2023-02-03T22:13:45.575Z,93065.34
2023-02-03T22:16:29.260Z,93057.34
2023-02-03T22:19:12.310Z,93057.22
2023-02-03T22:21:55.190Z,93078.78
2023-02-03T22:24:38.087Z,93071.75
2023-02-03T22:27:25.092Z,93071.63
2023-02-03T22:30:09.223Z,93092.59
2023-02-03T22:32:52.018Z,93100.94
2023-02-03T22:35:34.804Z,93094.00
2023-02-03T22:38:17.820Z,93097.13
2023-02-03T22:41:00.757Z,93104.56
2023-02-03T22:43:44.944Z,93095.13
2023-02-03T22:46:27.838Z,93103.13
2023-02-03T22:49:10.702Z,93095.63
2023-02-03T22:51:53.461Z,93102.88
2023-02-03T22:54:36.853Z,93091.78
2023-02-03T22:57:19.679Z,93087.00
2023-02-03T23:00:04.263Z,93083.31
2023-02-03T23:02:48.474Z,93064.63
2023-02-03T23:05:31.659Z,93093.41
2023-02-03T23:08:14.586Z,93080.88
2023-02-03T23:10:57.400Z,93093.53
2023-02-03T23:13:40.213Z,93103.06
2023-02-03T23:16:24.409Z,93094.22
2023-02-03T23:19:07.252Z,93094.31
2023-02-03T23:21:50.017Z,93097.78
2023-02-03T23:24:32.808Z,93096.16
2023-02-03T23:27:15.588Z,93095.94
2023-02-03T23:29:58.445Z,93093.28
2023-02-03T23:32:42.715Z,93107.91
2023-02-03T23:35:43.321Z,93123.31
2023-02-03T23:38:26.170Z,93110.69
2023-02-03T23:41:08.960Z,93123.84
2023-02-03T23:43:51.910Z,93121.81
2023-02-03T23:46:34.809Z,93118.44
2023-02-03T23:49:18.970Z,93108.94
2023-02-03T23:52:01.771Z,93120.75
2023-02-03T23:54:44.569Z,93128.56
2023-02-03T23:57:27.375Z,93133.75
